Time;durP1;ratioP1;P1;durP2;ratioP2;P2;SDS_P1;SDS_P2;PMS_P1;PMS_P2;Temp;Humidity;BMP_temperature;BMP_pressure;BME280_temperature;BME280_humidity;BME280_pressure;Samples;Min_cycle;Max_cycle;Signal;HPM_P1;HPM_P2
2022/08/18 00:02:21;;;;;;;28.73;26.27;;;;;;;19.40;100.00;101262.81;5052522;28;20130;-34
2022/08/18 00:04:47;;;;;;;29.02;26.38;;;;;;;19.33;100.00;101271.38;5053979;28;20175;-34
2022/08/18 00:07:24;;;;;;;29.33;26.52;;;;;;;19.25;100.00;101270.00;5053448;28;20064;-34
2022/08/18 00:09:50;;;;;;;29.58;26.80;;;;;;;19.24;100.00;101270.28;5054194;28;20028;-34
2022/08/18 00:12:18;;;;;;;28.75;26.23;;;;;;;19.23;100.00;101271.41;5053517;28;20044;-34
2022/08/18 00:14:44;;;;;;;28.40;25.50;;;;;;;19.18;100.00;101280.44;5053784;28;20081;-34
2022/08/18 00:17:10;;;;;;;26.15;23.85;;;;;;;19.27;100.00;101275.19;5053712;28;20162;-34
2022/08/18 00:19:35;;;;;;;;;;;;;;;19.36;100.00;101264.47;5053591;28;20079;-34
2022/08/18 00:22:00;;;;;;;26.23;23.90;;;;;;;19.26;100.00;101262.59;5052827;28;20383;-35
2022/08/18 00:24:26;;;;;;;27.25;24.75;;;;;;;19.28;100.00;101271.38;5053112;28;20037;-35
2022/08/18 00:26:51;;;;;;;27.38;24.80;;;;;;;19.27;100.00;101265.06;5053436;28;20037;-34
2022/08/18 00:29:17;;;;;;;27.33;24.83;;;;;;;19.28;100.00;101272.19;5053051;28;20057;-34
2022/08/18 00:31:42;;;;;;;27.33;24.98;;;;;;;19.27;100.00;101277.94;5054044;28;20059;-34
2022/08/18 00:34:08;;;;;;;27.55;24.98;;;;;;;19.28;100.00;101287.84;5052829;28;20025;-34
2022/08/18 00:36:34;;;;;;;28.63;25.85;;;;;;;19.24;100.00;101300.44;5053316;28;20095;-34
2022/08/18 00:39:00;;;;;;;27.52;25.08;;;;;;;19.20;100.00;101297.44;5052612;28;20061;-34
2022/08/18 00:41:26;;;;;;;28.77;26.25;;;;;;;19.10;100.00;101281.00;5053379;28;20075;-34
2022/08/18 00:43:53;;;;;;;27.08;24.48;;;;;;;19.24;100.00;101297.72;5051970;28;20037;-35
2022/08/18 00:46:24;;;;;;;27.65;25.13;;;;;;;19.21;100.00;101290.03;5053061;28;20029;-35
2022/08/18 00:48:50;;;;;;;27.48;24.98;;;;;;;19.18;100.00;101285.09;5052966;28;20056;-35
2022/08/18 00:51:19;;;;;;;25.98;23.58;;;;;;;19.25;100.00;101296.59;5052906;28;20037;-35
2022/08/18 00:53:52;;;;;;;26.08;23.60;;;;;;;19.25;100.00;101302.91;5053093;28;20029;-35
2022/08/18 00:56:23;;;;;;;26.40;24.00;;;;;;;19.20;100.00;101291.94;5052743;28;20465;-35
2022/08/18 00:58:56;;;;;;;24.88;22.80;;;;;;;19.28;100.00;101302.34;5052736;28;20119;-35
2022/08/18 01:01:25;;;;;;;24.48;22.40;;;;;;;19.22;100.00;101291.66;5053205;28;20048;-35
2022/08/18 01:03:57;;;;;;;25.80;23.38;;;;;;;19.23;100.00;101293.34;5052631;28;20443;-35
2022/08/18 01:06:31;;;;;;;26.02;23.75;;;;;;;19.21;100.00;101303.72;5052336;28;20049;-35
2022/08/18 01:08:56;;;;;;;21.67;19.73;;;;;;;19.25;100.00;101293.84;5052899;28;20354;-35
2022/08/18 01:11:22;;;;;;;;;;;;;;;19.32;100.00;101304.53;5052753;28;20040;-35
2022/08/18 01:13:47;;;;;;;20.70;18.80;;;;;;;19.24;100.00;101305.94;5052492;28;19913;-34
2022/08/18 01:21:52;;;;;;;24.90;22.70;;;;;;;19.22;100.00;101302.63;5052762;28;20043;-34
2022/08/18 01:25:58;;;;;;;26.58;24.08;;;;;;;19.19;100.00;101292.25;5052754;28;20028;-34
2022/08/18 01:27:16;;;;;;;27.08;24.50;;;;;;;19.18;100.00;101299.66;5052976;28;20040;-34
2022/08/18 01:29:42;;;;;;;27.45;24.98;;;;;;;19.18;100.00;101296.06;5053156;28;20025;-34
2022/08/18 01:32:08;;;;;;;28.88;25.77;;;;;;;19.13;100.00;101296.06;5052408;28;20500;-34
2022/08/18 01:34:33;;;;;;;;;;;;;;;19.21;100.00;101296.31;5051504;28;20025;-34
2022/08/18 01:36:58;;;;;;;27.00;24.33;;;;;;;19.08;100.00;101296.06;5052413;28;19912;-34
2022/08/18 01:39:24;;;;;;;28.35;25.83;;;;;;;19.02;100.00;101287.88;5052329;28;20395;-34
2022/08/18 01:41:50;;;;;;;29.67;27.02;;;;;;;18.96;100.00;101290.91;5052514;28;20044;-34
2022/08/18 01:44:15;;;;;;;27.63;25.00;;;;;;;19.02;100.00;101295.25;5052422;28;20047;-34
2022/08/18 01:46:41;;;;;;;28.15;25.42;;;;;;;18.94;100.00;101285.69;5053214;28;20064;-34
2022/08/18 01:49:07;;;;;;;;;;;;;;;19.05;100.00;101294.72;5052676;28;20037;-34
2022/08/18 01:51:33;;;;;;;26.08;23.48;;;;;;;18.94;100.00;101291.19;5052437;28;19958;-34
2022/08/18 01:53:59;;;;;;;27.70;25.27;;;;;;;18.85;100.00;101290.09;5052079;28;20057;-34
2022/08/18 01:56:28;;;;;;;28.10;25.35;;;;;;;18.88;100.00;101288.72;5055752;28;20070;-34
2022/08/18 01:58:54;;;;;;;26.27;24.05;;;;;;;18.84;100.00;101282.97;5056241;28;20467;-34
2022/08/18 02:01:22;;;;;;;23.83;21.77;;;;;;;18.84;100.00;101288.47;5055574;28;20029;-34
2022/08/18 02:03:53;;;;;;;25.42;23.02;;;;;;;18.80;100.00;101281.06;5055552;28;20028;-34
2022/08/18 02:06:18;;;;;;;26.88;24.35;;;;;;;18.78;100.00;101279.41;5055970;28;20442;-34
2022/08/18 02:08:45;;;;;;;26.38;23.75;;;;;;;18.75;100.00;101292.84;5055816;28;20168;-34
2022/08/18 02:11:11;;;;;;;27.67;25.00;;;;;;;18.71;100.00;101289.81;5055617;28;20107;-34
2022/08/18 02:13:37;;;;;;;26.38;23.75;;;;;;;18.71;100.00;101280.78;5055729;28;20045;-34
2022/08/18 02:16:03;;;;;;;25.80;23.30;;;;;;;18.65;100.00;101276.38;5055782;28;20075;-34
2022/08/18 02:18:30;;;;;;;;;;;;;;;18.74;100.00;101281.06;5056067;28;20376;-34
2022/08/18 02:20:57;;;;;;;25.45;22.95;;;;;;;18.66;100.00;101286.25;5056173;28;19955;-35
2022/08/18 02:23:23;;;;;;;26.10;23.55;;;;;;;18.56;100.00;101287.06;5055549;28;20421;-35
2022/08/18 02:25:49;;;;;;;26.75;24.25;;;;;;;18.58;100.00;101292.25;5055227;28;20029;-35
2022/08/18 02:28:14;;;;;;;;;;;;;;;18.65;100.00;101287.34;5055727;28;20025;-34
2022/08/18 02:30:40;;;;;;;26.50;24.15;;;;;;;18.51;100.00;101287.88;5055527;28;19920;-34
2022/08/18 02:33:08;;;;;;;23.98;21.60;;;;;;;18.46;100.00;101287.88;5055106;28;20029;-34
2022/08/18 02:35:34;;;;;;;27.17;24.77;;;;;;;18.36;100.00;101285.13;5055795;28;20457;-34
2022/08/18 02:37:59;;;;;;;;;;;;;;;18.52;100.00;101283.22;5055273;28;20025;-34
2022/08/18 02:40:25;;;;;;;26.88;24.05;;;;;;;18.42;100.00;101291.44;5055541;28;19908;-34
2022/08/18 02:42:51;;;;;;;;;;;;;;;18.51;100.00;101287.06;5055437;28;20028;-34
2022/08/18 02:45:17;;;;;;;26.63;24.13;;;;;;;18.38;100.00;101288.41;5055628;28;20007;-34
2022/08/18 02:47:43;;;;;;;26.60;24.08;;;;;;;18.25;100.00;101283.44;5054933;28;20031;-34
2022/08/18 02:50:09;;;;;;;26.45;23.90;;;;;;;18.23;100.00;101294.69;5055104;28;20128;-34
2022/08/18 02:52:34;;;;;;;;;;;;;;;18.37;100.00;101286.78;5055299;28;20028;-34
2022/08/18 02:55:03;;;;;;;25.65;23.30;;;;;;;18.20;100.00;101286.19;5054515;28;20011;-34
2022/08/18 02:57:29;;;;;;;19.58;17.83;;;;;;;18.23;100.00;101283.72;5054394;28;20343;-34
2022/08/18 02:59:55;;;;;;;24.70;22.38;;;;;;;18.13;100.00;101272.78;5055472;28;20079;-34
2022/08/18 03:02:21;;;;;;;24.95;22.48;;;;;;;18.17;100.00;101287.56;5070068;28;20482;-34
2022/08/18 03:04:47;;;;;;;23.38;21.05;;;;;;;18.18;100.00;101294.69;5054888;28;20435;-34
2022/08/18 03:07:13;;;;;;;;;;;;;;;18.27;100.00;101293.06;5053727;28;20029;-34
2022/08/18 03:09:39;;;;;;;25.17;22.52;;;;;;;18.11;100.00;101299.59;5054470;28;19916;-34
2022/08/18 03:12:06;;;;;;;23.13;20.85;;;;;;;18.06;100.00;101290.56;5054163;28;20041;-34
2022/08/18 03:14:32;;;;;;;25.85;23.30;;;;;;;18.07;100.00;101298.50;5054108;28;20026;-34
2022/08/18 03:16:59;;;;;;;25.10;22.60;;;;;;;18.06;100.00;101296.84;5054908;28;20051;-34
2022/08/18 03:19:27;;;;;;;25.13;22.67;;;;;;;18.05;100.00;101306.13;5054244;28;20104;-34
2022/08/18 03:21:54;;;;;;;22.38;20.33;;;;;;;18.04;100.00;101288.06;5054345;28;20033;-34
2022/08/18 03:24:20;;;;;;;19.48;17.70;;;;;;;18.11;100.00;101304.25;5054525;28;20021;-34
2022/08/18 03:26:46;;;;;;;;;;;;;;;18.16;100.00;101307.00;5055478;28;20061;-34
2022/08/18 03:29:12;;;;;;;23.97;21.40;;;;;;;17.95;100.00;101304.19;5054197;28;19909;-34
2022/08/18 03:31:37;;;;;;;;;;;;;;;18.10;100.00;101317.09;5054259;28;20021;-34
2022/08/18 03:34:05;;;;;;;22.40;20.20;;;;;;;17.95;100.00;101317.03;5053689;28;19999;-35
2022/08/18 03:36:32;;;;;;;24.45;22.13;;;;;;;17.89;100.00;101318.13;5054799;28;20025;-35
2022/08/18 03:39:01;;;;;;;23.73;21.48;;;;;;;17.89;100.00;101315.41;5053680;28;20025;-35
2022/08/18 03:41:27;;;;;;;20.75;18.85;;;;;;;17.92;100.00;101318.44;5053862;28;20021;-35
2022/08/18 03:43:52;;;;;;;23.83;21.48;;;;;;;17.86;100.00;101318.66;5053826;28;20117;-35
2022/08/18 03:46:20;;;;;;;21.85;19.95;;;;;;;17.87;100.00;101320.31;5054034;28;20094;-35
2022/08/18 03:48:47;;;;;;;24.27;21.98;;;;;;;17.78;100.00;101316.47;5053676;28;20029;-35
2022/08/18 03:51:21;;;;;;;25.48;23.08;;;;;;;17.83;100.00;101321.94;5053448;28;20052;-35
2022/08/18 03:53:48;;;;;;;20.05;18.05;;;;;;;17.91;100.00;101316.78;5054132;28;20068;-35
2022/08/18 03:56:18;;;;;;;24.30;22.00;;;;;;;17.79;100.00;101316.19;5054179;28;20045;-35
2022/08/18 03:58:46;;;;;;;24.05;21.75;;;;;;;17.81;100.00;101324.94;5053546;28;20040;-35
2022/08/18 04:01:14;;;;;;;20.80;18.73;;;;;;;17.86;100.00;101324.13;5053965;28;20056;-35
2022/08/18 04:03:44;;;;;;;21.88;19.77;;;;;;;17.86;100.00;101324.13;5053510;28;20059;-35
2022/08/18 04:06:23;;;;;;;22.20;20.13;;;;;;;17.86;100.00;101316.78;5053709;28;20044;-35
2022/08/18 04:08:53;;;;;;;21.52;19.48;;;;;;;17.86;100.00;101307.72;5053641;28;20025;-35
2022/08/18 04:11:19;;;;;;;23.80;21.60;;;;;;;17.88;100.00;101311.84;5053314;28;20027;-34
2022/08/18 04:13:44;;;;;;;;;;;;;;;18.01;100.00;101310.53;5053868;28;20112;-34
2022/08/18 04:16:10;;;;;;;23.35;20.95;;;;;;;17.96;100.00;101307.78;5052936;28;20341;-34
2022/08/18 04:18:35;;;;;;;;;;;;;;;18.05;100.00;101316.25;5052310;28;20519;-35
2022/08/18 04:21:06;;;;;;;25.02;22.60;;;;;;;17.93;100.00;101311.03;5053151;28;20284;-35
2022/08/18 04:23:33;;;;;;;25.58;22.85;;;;;;;17.91;100.00;101315.94;5053556;28;20411;-35
2022/08/18 04:26:00;;;;;;;24.20;22.05;;;;;;;17.90;100.00;101308.81;5053302;28;20047;-35
2022/08/18 04:28:27;;;;;;;25.38;22.33;;;;;;;17.88;100.00;101321.97;5053269;28;20049;-35
2022/08/18 04:30:53;;;;;;;22.38;20.23;;;;;;;17.91;100.00;101318.66;5053249;28;20021;-35
2022/08/18 04:33:19;;;;;;;21.80;19.80;;;;;;;17.89;100.00;101307.19;5053190;28;20021;-34
2022/08/18 04:35:45;;;;;;;;;;;;;;;18.00;100.00;101312.41;5053440;28;20029;-35
2022/08/18 04:38:11;;;;;;;22.60;20.53;;;;;;;17.92;100.00;101317.59;5053070;28;19932;-35
2022/08/18 04:40:37;;;;;;;23.95;21.55;;;;;;;17.89;100.00;101318.94;5052812;28;20445;-35
2022/08/18 04:43:02;;;;;;;;;;;;;;;17.98;100.00;101320.09;5053216;28;20036;-34
2022/08/18 04:45:28;;;;;;;26.88;24.38;;;;;;;17.81;100.00;101313.16;5053078;28;19974;-34
2022/08/18 04:47:53;;;;;;;;;;;;;;;17.96;100.00;101316.81;5053706;28;20029;-34
2022/08/18 04:50:19;;;;;;;26.15;23.52;;;;;;;17.87;100.00;101320.31;5053017;28;19909;-34
2022/08/18 04:55:29;;;;;;;28.05;25.35;;;;;;;17.77;100.00;101332.06;5053002;28;19920;-35
2022/08/18 04:57:55;;;;;;;27.60;25.08;;;;;;;17.82;100.00;101325.78;5053192;28;20024;-35
2022/08/18 05:00:21;;;;;;;24.33;22.08;;;;;;;17.86;100.00;101337.81;5052650;28;20124;-35
2022/08/18 05:02:46;;;;;;;;;;;;;;;17.92;100.00;101334.84;5053170;28;20052;-35
2022/08/18 05:05:11;;;;;;;26.97;24.37;;;;;;;17.82;100.00;101333.97;5052876;28;19909;-35
2022/08/18 05:07:43;;;;;;;;;;;;;;;17.94;100.00;101338.13;5053270;28;20644;-35
2022/08/18 05:10:11;;;;;;;25.15;22.65;;;;;;;17.84;100.00;101331.78;5053051;28;19944;-35
2022/08/18 05:12:36;;;;;;;26.67;24.05;;;;;;;17.91;100.00;101335.09;5053060;28;20457;-35
2022/08/18 05:15:02;;;;;;;;;;;;;;;17.97;100.00;101331.31;5052959;28;20029;-35
2022/08/18 05:17:27;;;;;;;27.60;24.90;;;;;;;17.91;100.00;101333.19;5053139;28;20369;-35
2022/08/18 05:19:53;;;;;;;27.73;24.95;;;;;;;17.82;100.00;101325.78;5052667;28;20085;-35
2022/08/18 05:22:19;;;;;;;;;;;;;;;17.97;100.00;101334.03;5053384;28;20036;-35
2022/08/18 05:24:45;;;;;;;23.15;20.95;;;;;;;17.96;100.00;101338.69;5052310;28;19913;-35
2022/08/18 05:27:12;;;;;;;24.20;21.70;;;;;;;17.99;100.00;101334.59;5052441;28;20025;-35
2022/08/18 05:29:37;;;;;;;21.10;19.15;;;;;;;18.07;100.00;101334.06;5052929;28;20111;-35
2022/08/18 05:32:05;;;;;;;;;;;;;;;18.13;100.00;101341.19;5056665;28;20122;-35
2022/08/18 05:34:31;;;;;;;27.33;24.88;;;;;;;18.06;100.00;101345.28;5056224;28;19923;-35
2022/08/18 05:37:14;;;;;;;27.92;25.38;;;;;;;18.07;100.00;101338.72;5056236;28;20025;-35
2022/08/18 05:39:47;;;;;;;27.60;24.90;;;;;;;17.99;100.00;101332.66;5056840;28;20047;-35
2022/08/18 05:42:16;;;;;;;24.60;22.02;;;;;;;18.17;100.00;101338.75;5055851;28;20086;-35
2022/08/18 05:44:49;;;;;;;26.65;24.15;;;;;;;18.13;100.00;101341.19;5056289;28;20040;-35
2022/08/18 05:47:27;;;;;;;27.25;24.65;;;;;;;18.19;100.00;101339.28;5056557;28;20029;-34
2022/08/18 05:49:55;;;;;;;21.67;19.58;;;;;;;18.34;100.00;101350.28;5055906;28;20033;-35
2022/08/18 05:52:29;;;;;;;26.50;23.98;;;;;;;18.31;100.00;101352.75;5055675;28;20075;-35
2022/08/18 05:57:53;;;;;;;22.02;20.08;;;;;;;18.55;100.00;101353.06;5055957;28;20119;-35
2022/08/18 06:00:22;;;;;;;24.50;22.27;;;;;;;18.55;100.00;101353.06;5055855;28;20025;-35
2022/08/18 06:03:11;;;;;;;25.42;23.02;;;;;;;18.62;100.00;101362.66;5055994;28;20033;-35
2022/08/18 06:06:02;;;;;;;22.73;20.73;;;;;;;18.74;100.00;101359.69;5055788;28;20056;-35
2022/08/18 06:08:35;;;;;;;24.92;21.70;;;;;;;18.69;100.00;101357.78;5032741;28;20037;-35
2022/08/18 06:11:00;;;;;;;25.88;23.58;;;;;;;18.68;100.00;101358.84;5032063;28;20263;-35
2022/08/18 06:13:26;;;;;;;;;;;;;;;18.83;100.00;101359.94;5032241;28;20054;-35
2022/08/18 06:16:22;;;;;;;25.05;22.67;;;;;;;18.68;100.00;101369.81;5033573;28;19928;-35
2022/08/18 06:19:32;;;;;;;26.38;23.95;;;;;;;18.64;100.00;101359.63;5033319;28;20139;-35
2022/08/18 06:22:36;;;;;;;23.67;21.55;;;;;;;18.67;100.00;101370.06;5033227;28;20501;-35
2022/08/18 06:25:06;;;;;;;24.83;22.58;;;;;;;18.67;100.00;101367.31;5033305;28;20025;-35
2022/08/18 06:27:54;;;;;;;27.67;25.08;;;;;;;18.67;100.00;101376.34;5033062;28;20088;-35
2022/08/18 06:30:46;;;;;;;23.33;21.23;;;;;;;18.78;100.00;101363.50;5033537;28;20072;-35
2022/08/18 06:33:27;;;;;;;26.33;23.80;;;;;;;18.90;100.00;101369.56;5033628;28;20093;-34
2022/08/18 06:36:01;;;;;;;26.05;23.45;;;;;;;18.93;100.00;101368.16;5033413;28;20466;-34
2022/08/18 06:38:38;;;;;;;24.80;22.42;;;;;;;18.99;100.00;101364.34;5033130;28;20072;-35
2022/08/18 06:41:18;;;;;;;26.88;24.33;;;;;;;19.08;100.00;101376.41;5033457;28;20129;-35
2022/08/18 06:43:50;;;;;;;26.65;23.75;;;;;;;18.97;100.00;101366.53;5033446;28;20575;-35
2022/08/18 06:46:20;;;;;;;24.23;22.00;;;;;;;19.12;100.00;101380.22;5051812;28;20041;-35
2022/08/18 06:48:49;;;;;;;22.55;20.15;;;;;;;19.25;100.00;101382.41;5054631;28;20028;-35
2022/08/18 06:51:20;;;;;;;25.15;22.77;;;;;;;19.24;100.00;101383.50;5055204;28;20040;-35
2022/08/18 06:54:25;;;;;;;25.17;22.58;;;;;;;19.24;100.00;101382.69;5054706;28;20048;-35
2022/08/18 06:56:53;;;;;;;23.23;21.15;;;;;;;19.16;100.00;101378.59;5055281;28;20037;-35
2022/08/18 06:59:26;;;;;;;23.95;21.65;;;;;;;19.10;100.00;101365.16;5054442;28;20112;-35
2022/08/18 07:01:59;;;;;;;22.27;20.13;;;;;;;19.24;100.00;101378.03;5054878;28;20453;-35
2022/08/18 07:04:34;;;;;;;25.60;21.00;;;;;;;19.26;100.00;101381.31;5054742;28;20041;-35
2022/08/18 07:07:12;;;;;;;22.08;19.77;;;;;;;19.32;100.00;101386.78;5054675;28;20029;-34
2022/08/18 07:09:38;;;;;;;21.50;19.50;;;;;;;19.30;100.00;101378.84;5054314;28;20036;-35
2022/08/18 07:12:07;;;;;;;;;;;;;;;19.53;100.00;101385.66;5055671;28;20037;-35
2022/08/18 07:14:42;;;;;;;21.70;19.70;;;;;;;19.49;100.00;101379.09;5055159;28;20065;-35
2022/08/18 07:17:10;;;;;;;21.40;19.27;;;;;;;19.51;100.00;101380.44;5054496;28;20071;-35
2022/08/18 07:19:36;;;;;;;17.83;16.25;;;;;;;19.61;100.00;101387.03;5054709;28;20025;-35
2022/08/18 07:22:12;;;;;;;;;;;;;;;19.73;100.00;101391.13;5055285;28;20179;-35
2022/08/18 07:24:50;;;;;;;18.80;16.25;;;;;;;19.71;100.00;101382.34;5055046;28;19909;-35
2022/08/18 07:27:40;;;;;;;19.15;17.35;;;;;;;19.81;100.00;101376.00;5054874;28;20036;-35
2022/08/18 07:30:08;;;;;;;18.23;16.48;;;;;;;19.93;100.00;101386.66;5053958;28;20068;-34
2022/08/18 07:32:43;;;;;;;18.25;15.00;;;;;;;19.96;100.00;101381.44;5054028;28;20454;-34
2022/08/18 07:35:11;;;;;;;16.50;15.02;;;;;;;20.03;100.00;101378.38;5053721;28;20024;-34
2022/08/18 07:37:47;;;;;;;15.68;14.07;;;;;;;20.00;99.02;101385.25;5054278;28;20036;-34
2022/08/18 07:40:30;;;;;;;17.05;14.38;;;;;;;20.09;99.92;101370.94;5054296;28;20112;-34
2022/08/18 07:43:00;;;;;;;15.77;14.40;;;;;;;20.13;100.00;101374.78;5053983;28;20025;-34
2022/08/18 07:45:32;;;;;;;16.20;13.32;;;;;;;20.17;99.68;101373.94;5053827;28;20047;-35
2022/08/18 07:48:09;;;;;;;13.93;12.50;;;;;;;20.32;98.90;101381.25;5054080;28;20060;-35
2022/08/18 07:50:43;;;;;;;12.13;10.93;;;;;;;20.45;97.67;101383.41;5053422;28;20447;-35
2022/08/18 07:54:03;;;;;;;13.18;11.85;;;;;;;20.55;98.48;101385.28;5053196;28;20067;-35
2022/08/18 07:56:38;;;;;;;13.55;12.18;;;;;;;20.53;96.88;101373.75;5031463;28;20112;-34
2022/08/18 07:59:03;;;;;;;13.95;10.02;;;;;;;20.63;94.81;101384.66;5031445;28;20044;-34
2022/08/18 08:01:47;;;;;;;10.60;9.40;;;;;;;20.73;96.05;101379.09;5031584;28;20283;-35
2022/08/18 08:04:50;;;;;;;12.52;10.45;;;;;;;20.66;94.72;101378.59;5031395;28;20521;-35
2022/08/18 08:07:20;;;;;;;11.63;10.52;;;;;;;20.59;93.09;101380.84;4973016;28;20073;-35
2022/08/18 08:10:11;;;;;;;11.35;10.30;;;;;;;20.63;95.32;101383.84;4972621;28;20075;-35
2022/08/18 08:12:42;;;;;;;11.73;10.52;;;;;;;20.70;95.54;101387.94;4972592;28;20136;-35
2022/08/18 08:15:22;;;;;;;10.65;9.50;;;;;;;20.71;95.13;101394.25;4972197;28;20113;-35
2022/08/18 08:18:03;;;;;;;11.82;8.35;;;;;;;20.76;94.80;101384.03;4972730;28;20376;-35
2022/08/18 08:20:38;;;;;;;9.32;8.20;;;;;;;20.79;94.06;101382.66;4972413;28;20038;-35
2022/08/18 08:23:27;;;;;;;9.45;8.48;;;;;;;20.89;94.28;101381.75;4972796;28;20115;-35
2022/08/18 08:26:04;;;;;;;10.63;7.97;;;;;;;20.92;92.98;101381.97;4972407;28;20073;-35
2022/08/18 08:28:41;;;;;;;11.65;8.00;;;;;;;20.86;93.13;101374.88;4972233;28;20486;-35
2022/08/18 08:31:20;;;;;;;8.07;6.85;;;;;;;20.90;92.45;101389.69;4987883;28;20042;-35
2022/08/18 08:34:01;;;;;;;6.78;5.70;;;;;;;20.82;92.08;101384.81;4991687;28;20026;-35
2022/08/18 08:36:32;;;;;;;6.88;5.72;;;;;;;20.92;90.89;101395.72;4992029;28;20082;-35
2022/08/18 08:39:12;;;;;;;7.20;6.13;;;;;;;21.14;91.38;101403.53;4991417;28;20117;-35
2022/08/18 08:41:43;;;;;;;8.75;5.53;;;;;;;21.24;91.87;101392.44;4991416;28;20142;-35
2022/08/18 08:44:20;;;;;;;5.85;4.90;;;;;;;21.57;90.00;101392.69;5024572;28;20572;-35
2022/08/18 08:46:51;;;;;;;7.90;5.18;;;;;;;21.67;89.17;101398.09;5053194;28;20059;-35
2022/08/18 08:49:41;;;;;;;6.03;5.25;;;;;;;21.69;87.63;101393.09;5053849;28;20036;-35
2022/08/18 08:52:28;;;;;;;7.10;5.15;;;;;;;21.84;87.52;101398.44;5052549;28;20029;-35
2022/08/18 08:55:14;;;;;;;;;;;;;;;21.97;88.63;101398.84;5053574;28;20029;-35
2022/08/18 08:57:52;;;;;;;6.40;5.03;;;;;;;22.21;85.35;101399.66;5052500;28;19960;-36
2022/08/18 09:00:17;;;;;;;4.68;3.97;;;;;;;22.47;82.85;101393.78;5053074;28;20020;-35
2022/08/18 09:02:51;;;;;;;5.20;4.45;;;;;;;22.69;80.75;101405.03;5052794;28;20047;-35
2022/08/18 09:05:22;;;;;;;5.85;4.47;;;;;;;22.69;80.09;101407.78;5054247;28;20115;-35
2022/08/18 09:07:50;;;;;;;6.80;4.00;;;;;;;22.76;79.14;101394.44;5057016;28;20533;-35
2022/08/18 09:10:39;;;;;;;4.00;3.60;;;;;;;22.80;79.84;101395.50;5056786;28;20473;-35
2022/08/18 09:13:15;;;;;;;4.72;3.35;;;;;;;22.66;77.22;101399.31;5057643;28;20132;-35
2022/08/18 09:15:48;;;;;;;4.70;4.20;;;;;;;22.50;76.42;101401.47;5057334;28;20108;-35
2022/08/18 09:18:33;;;;;;;6.63;4.25;;;;;;;22.50;79.46;101399.53;5056120;28;20339;-36
2022/08/18 09:21:17;;;;;;;9.35;4.70;;;;;;;22.41;78.74;101390.31;5057079;28;20039;-35
2022/08/18 09:23:45;;;;;;;7.05;4.95;;;;;;;22.41;79.38;101397.75;5056575;28;20103;-35
2022/08/18 09:26:39;;;;;;;5.40;4.80;;;;;;;22.43;78.14;101406.53;5056364;28;20021;-35
2022/08/18 09:29:17;;;;;;;5.10;4.60;;;;;;;22.38;79.46;101406.59;5034335;28;20033;-35
2022/08/18 09:31:44;;;;;;;4.90;4.40;;;;;;;22.31;78.29;101405.03;5034718;28;20049;-35
2022/08/18 09:34:24;;;;;;;5.32;4.80;;;;;;;22.39;79.90;101409.03;5034094;28;20038;-35
2022/08/18 09:37:07;;;;;;;5.18;4.50;;;;;;;22.36;78.28;101412.41;5034503;28;20191;-35
2022/08/18 09:42:43;;;;;;;8.30;4.65;;;;;;;22.85;80.96;101394.59;5034172;28;20495;-35
2022/08/18 09:45:29;;;;;;;5.60;4.65;;;;;;;22.78;79.39;101402.41;5034157;28;20084;-36
2022/08/18 09:47:54;;;;;;;5.70;4.30;;;;;;;22.65;79.60;101401.25;5030206;28;20033;-35
2022/08/18 09:50:27;;;;;;;6.65;4.90;;;;;;;22.58;78.63;101398.03;5034189;28;20366;-35
2022/08/18 09:53:14;;;;;;;5.97;4.70;;;;;;;22.49;78.22;101394.31;5033766;28;20040;-35
2022/08/18 09:55:51;;;;;;;6.63;4.75;;;;;;;22.46;77.87;101397.69;5048261;28;20037;-35
2022/08/18 09:59:00;;;;;;;5.85;4.95;;;;;;;22.55;79.99;101396.72;5034262;28;20033;-36
2022/08/18 10:01:29;;;;;;;8.90;6.05;;;;;;;22.45;79.13;101401.53;5033800;28;20031;-35
2022/08/18 10:04:19;;;;;;;9.07;7.38;;;;;;;22.42;79.30;101386.41;5033585;28;20029;-35
2022/08/18 10:06:47;;;;;;;7.18;6.55;;;;;;;22.77;77.32;101406.28;5051975;28;20033;-35
2022/08/18 10:09:43;;;;;;;9.02;7.00;;;;;;;23.15;76.52;101400.75;5056204;28;20035;-35
2022/08/18 10:12:34;;;;;;;7.90;6.75;;;;;;;23.55;77.25;101386.22;5055697;28;20049;-36
2022/08/18 10:15:31;;;;;;;7.70;6.95;;;;;;;23.70;73.73;101390.66;5055357;28;20037;-36
2022/08/18 10:18:25;;;;;;;10.07;7.95;;;;;;;23.69;76.82;101389.03;5055572;28;20025;-35
2022/08/18 10:20:53;;;;;;;7.70;7.00;;;;;;;23.58;73.78;101379.28;5055541;28;20029;-36
2022/08/18 10:23:43;;;;;;;8.93;8.13;;;;;;;23.54;74.96;101387.34;5055887;28;20025;-36
2022/08/18 10:26:30;;;;;;;10.23;7.80;;;;;;;23.48;74.92;101377.53;5055278;28;20028;-36
2022/08/18 10:29:00;;;;;;;7.85;7.13;;;;;;;23.51;74.47;101373.31;5055688;28;20032;-36
2022/08/18 10:31:27;;;;;;;9.48;8.57;;;;;;;23.71;71.98;101367.44;5055619;28;20418;-36
2022/08/18 10:34:10;;;;;;;9.43;8.30;;;;;;;23.56;72.56;101367.69;5055273;28;20311;-36
2022/08/18 10:36:44;;;;;;;9.32;8.38;;;;;;;23.39;73.90;101376.59;5055727;28;20037;-35
2022/08/18 10:39:12;;;;;;;9.20;8.40;;;;;;;23.63;71.69;101368.97;5055238;28;20118;-34
2022/08/18 10:41:59;;;;;;;10.13;9.23;;;;;;;23.97;70.78;101361.41;5055835;28;20365;-35
2022/08/18 10:44:26;;;;;;;9.35;8.40;;;;;;;23.98;69.28;101368.56;5055960;28;20040;-35
2022/08/18 10:46:52;;;;;;;8.57;7.82;;;;;;;24.23;70.30;101359.72;5055258;28;20071;-35
2022/08/18 10:49:24;;;;;;;7.68;6.97;;;;;;;24.44;67.44;101364.78;5054726;28;20400;-35
2022/08/18 10:51:56;;;;;;;8.73;7.78;;;;;;;24.62;67.16;101363.81;5054885;28;20405;-35
2022/08/18 10:54:37;;;;;;;6.53;6.03;;;;;;;24.69;68.21;101369.72;5055405;28;20064;-35
2022/08/18 10:57:16;;;;;;;7.03;6.38;;;;;;;24.50;68.18;101363.53;5055682;28;20056;-35
2022/08/18 10:59:47;;;;;;;6.18;5.57;;;;;;;24.35;68.28;101373.81;5055102;28;20039;-35
2022/08/18 11:02:31;;;;;;;6.43;5.70;;;;;;;24.19;68.06;101374.44;5055563;28;20078;-35
2022/08/18 11:04:57;;;;;;;6.63;6.03;;;;;;;23.93;67.67;101369.47;5054154;28;20033;-35
2022/08/18 11:07:25;;;;;;;6.38;5.72;;;;;;;23.82;69.56;101370.81;5055447;28;20028;-35
2022/08/18 11:09:54;;;;;;;7.18;6.35;;;;;;;23.72;69.07;101358.03;5054795;28;20032;-34
2022/08/18 11:13:01;;;;;;;7.60;6.90;;;;;;;23.60;70.04;101374.25;5055361;28;20049;-35
2022/08/18 11:15:40;;;;;;;7.23;6.13;;;;;;;23.57;71.31;101369.34;5055222;28;20112;-34
2022/08/18 11:18:33;;;;;;;8.30;6.38;;;;;;;23.61;70.58;101360.13;5055170;28;20033;-35
2022/08/18 11:21:32;;;;;;;6.57;5.82;;;;;;;23.71;71.28;101353.63;5055169;28;20411;-35
2022/08/18 11:24:26;;;;;;;8.88;6.47;;;;;;;24.09;70.46;101353.41;5054358;28;20423;-35
2022/08/18 11:27:16;;;;;;;7.63;6.90;;;;;;;24.33;67.35;101347.59;5053934;28;20029;-35
2022/08/18 11:29:42;;;;;;;7.47;6.78;;;;;;;24.74;65.61;101339.16;5054402;28;20036;-35
2022/08/18 11:32:21;;;;;;;7.53;6.40;;;;;;;25.28;66.01;101333.66;5054216;28;20028;-35
2022/08/18 11:35:00;;;;;;;7.05;6.35;;;;;;;25.36;64.48;101324.59;5053863;28;20025;-35
2022/08/18 11:37:29;;;;;;;6.22;5.68;;;;;;;25.20;63.49;101328.91;5054692;28;20079;-35
2022/08/18 11:39:57;;;;;;;6.45;5.30;;;;;;;25.15;63.32;101329.88;5054021;28;20044;-35
2022/08/18 11:42:32;;;;;;;6.47;5.65;;;;;;;24.67;61.15;101330.50;5054354;28;20094;-35
2022/08/18 11:45:19;;;;;;;5.72;5.22;;;;;;;24.42;63.19;101328.38;5054533;28;20067;-35
2022/08/18 11:48:03;;;;;;;5.65;5.05;;;;;;;24.34;66.39;101325.19;5054546;28;20056;-35
2022/08/18 11:50:31;;;;;;;5.72;5.22;;;;;;;24.30;64.71;101323.34;5053823;28;20086;-35
2022/08/18 11:53:16;;;;;;;5.72;5.15;;;;;;;24.27;66.09;101321.22;5053647;28;20108;-35
2022/08/18 11:55:42;;;;;;;5.35;4.85;;;;;;;24.28;66.31;101322.84;5054528;28;20120;-35
2022/08/18 11:58:07;;;;;;;6.05;5.45;;;;;;;24.29;67.03;101313.44;5052117;28;20111;-35